Time;durP1;ratioP1;P1;durP2;ratioP2;P2;SDS_P1;SDS_P2;PMS_P1;PMS_P2;Temp;Humidity;BMP_temperature;BMP_pressure;BME280_temperature;BME280_humidity;BME280_pressure;Samples;Min_cycle;Max_cycle;Signal;HPM_P1;HPM_P2
2022/11/12 00:00:01;;;;;;;4.63;1.77;;;7.60;99.90;;;;;;4972971;28;20224;-89
2022/11/12 00:02:27;;;;;;;4.70;1.90;;;7.50;99.90;;;;;;4972919;28;20645;-89
2022/11/12 00:04:56;;;;;;;4.57;1.83;;;7.60;99.90;;;;;;4973022;28;20184;-89
2022/11/12 00:07:22;;;;;;;5.80;1.73;;;7.60;99.90;;;;;;4972782;28;20229;-89
2022/11/12 00:09:47;;;;;;;5.07;2.10;;;7.50;99.90;;;;;;4973258;28;20185;-90
2022/11/12 00:12:13;;;;;;;4.63;1.90;;;7.50;99.90;;;;;;4972879;28;20191;-89
2022/11/12 00:14:39;;;;;;;2.63;1.60;;;7.50;99.90;;;;;;4972909;28;20215;-89
2022/11/12 00:17:04;;;;;;;4.97;1.90;;;7.50;99.90;;;;;;4972609;28;20254;-89
2022/11/12 00:19:33;;;;;;;2.43;1.67;;;7.50;99.90;;;;;;4972746;28;20191;-89
2022/11/12 00:21:59;;;;;;;4.77;1.90;;;7.50;99.90;;;;;;4972389;28;20185;-89
2022/11/12 00:24:25;;;;;;;4.90;2.13;;;7.50;99.90;;;;;;4972704;28;20180;-89
2022/11/12 00:26:51;;;;;;;2.00;1.73;;;7.40;99.90;;;;;;4972497;28;20668;-89
2022/11/12 00:29:16;;;;;;;2.80;1.83;;;7.40;99.90;;;;;;4972805;28;20521;-89
2022/11/12 00:31:42;;;;;;;3.90;2.27;;;7.40;99.90;;;;;;4972373;28;20711;-89
2022/11/12 00:34:08;;;;;;;4.87;2.20;;;7.40;99.90;;;;;;4972393;28;20231;-89
2022/11/12 00:36:34;;;;;;;3.77;1.90;;;7.40;99.90;;;;;;4972672;28;20243;-89
2022/11/12 00:38:59;;;;;;;3.97;1.80;;;7.40;99.90;;;;;;4974657;28;20186;-89
2022/11/12 00:41:34;;;;;;;4.27;2.13;;;7.40;99.90;;;;;;4975959;28;20188;-89
2022/11/12 00:44:08;;;;;;;3.27;1.70;;;7.40;99.90;;;;;;4992638;28;20182;-89
2022/11/12 00:46:33;;;;;;;4.63;2.40;;;7.40;99.90;;;;;;4992558;28;20204;-88
2022/11/12 00:49:00;;;;;;;3.77;1.80;;;7.30;99.90;;;;;;4977534;28;20176;-89
2022/11/12 00:51:26;;;;;;;2.77;1.60;;;7.30;99.90;;;;;;4992527;28;20617;-89
2022/11/12 00:53:52;;;;;;;4.00;1.80;;;7.30;99.90;;;;;;4977268;28;20215;-89
2022/11/12 00:56:18;;;;;;;3.40;1.90;;;7.30;99.90;;;;;;4976604;28;20184;-89
2022/11/12 00:58:44;;;;;;;4.17;2.10;;;7.20;99.90;;;;;;4976305;28;20196;-89
2022/11/12 01:01:13;;;;;;;3.50;2.13;;;7.20;99.90;;;;;;4976632;28;20643;-89
2022/11/12 01:03:44;;;;;;;2.80;1.87;;;7.20;99.90;;;;;;4976212;28;20176;-89
2022/11/12 01:06:17;;;;;;;4.77;2.20;;;7.20;99.90;;;;;;4976296;28;20208;-89
2022/11/12 01:08:43;;;;;;;4.50;2.27;;;7.20;99.90;;;;;;4977028;28;20252;-88
2022/11/12 01:11:12;;;;;;;4.40;2.10;;;7.20;99.90;;;;;;4977399;28;20165;-90
2022/11/12 01:13:40;;;;;;;3.17;1.73;;;7.20;99.90;;;;;;4976098;28;20172;-89
2022/11/12 01:16:14;;;;;;;2.97;1.80;;;7.10;99.90;;;;;;4975933;28;20168;-90
2022/11/12 01:18:41;;;;;;;3.97;2.10;;;7.10;99.90;;;;;;4976231;28;20210;-88
2022/11/12 01:21:07;;;;;;;2.37;1.70;;;7.20;99.90;;;;;;4976105;28;20597;-89
2022/11/12 01:23:36;;;;;;;4.93;2.00;;;7.10;99.90;;;;;;4991354;28;20203;-89
2022/11/12 01:26:16;;;;;;;2.97;2.00;;;7.10;99.90;;;;;;4995443;28;20188;-89
2022/11/12 01:28:43;;;;;;;4.37;2.10;;;7.10;99.90;;;;;;4995219;28;20220;-89
2022/11/12 01:31:19;;;;;;;4.53;2.00;;;7.10;99.90;;;;;;4994994;28;20223;-89
2022/11/12 01:33:48;;;;;;;4.37;1.97;;;7.10;99.90;;;;;;4995049;28;20272;-89
2022/11/12 01:36:16;;;;;;;2.33;1.80;;;7.10;99.90;;;;;;4994933;28;20180;-89
2022/11/12 01:41:30;;;;;;;4.17;1.90;;;7.10;99.90;;;;;;5281654;23;20665;-89
2022/11/12 01:44:13;;;;;;;2.47;1.80;;;7.10;99.90;;;;;;4991267;28;20204;-89
2022/11/12 01:46:57;;;;;;;4.77;1.87;;;7.10;99.90;;;;;;4991065;28;20635;-89
2022/11/12 01:49:40;;;;;;;4.90;1.67;;;7.10;99.90;;;;;;4991366;28;20301;-88
2022/11/12 01:52:17;;;;;;;4.50;1.90;;;7.10;99.90;;;;;;4991163;28;20176;-89
2022/11/12 01:54:48;;;;;;;3.73;1.90;;;7.10;99.90;;;;;;4991138;28;20185;-89
2022/11/12 01:57:17;;;;;;;3.90;1.67;;;7.10;99.90;;;;;;4991182;28;20207;-89
2022/11/12 01:59:46;;;;;;;7.37;2.20;;;7.10;99.90;;;;;;4991292;28;20194;-89
2022/11/12 02:02:12;;;;;;;3.57;1.63;;;7.00;99.90;;;;;;4991562;28;20628;-89
2022/11/12 02:04:40;;;;;;;3.93;2.00;;;7.00;99.90;;;;;;4991452;28;20594;-89
2022/11/12 02:07:07;;;;;;;2.60;1.90;;;6.90;99.90;;;;;;4991231;28;20211;-89
2022/11/12 02:09:34;;;;;;;3.20;1.70;;;6.90;99.90;;;;;;4991200;28;20256;-89
2022/11/12 02:12:00;;;;;;;2.50;1.70;;;6.80;99.90;;;;;;4994182;28;20202;-89
2022/11/12 02:14:26;;;;;;;5.73;1.93;;;6.80;99.90;;;;;;5010347;28;20173;-89
2022/11/12 02:16:52;;;;;;;5.83;1.90;;;6.80;99.90;;;;;;5010024;28;20204;-89
2022/11/12 02:19:18;;;;;;;3.53;1.80;;;6.70;99.90;;;;;;5010588;28;20817;-88
2022/11/12 02:21:45;;;;;;;2.57;1.67;;;6.70;99.90;;;;;;5010341;28;20179;-89
2022/11/12 02:24:10;;;;;;;2.73;1.80;;;6.70;99.90;;;;;;5010520;28;20171;-89
2022/11/12 02:26:40;;;;;;;2.63;1.70;;;6.70;99.90;;;;;;5010386;28;20199;-89
2022/11/12 02:29:06;;;;;;;2.83;1.83;;;6.70;99.90;;;;;;5010289;28;20171;-89
2022/11/12 02:31:32;;;;;;;2.70;2.07;;;6.70;99.90;;;;;;4995491;28;20161;-90
2022/11/12 02:33:58;;;;;;;2.87;1.70;;;6.60;99.90;;;;;;5010488;28;20196;-89
2022/11/12 02:36:24;;;;;;;4.00;2.17;;;6.60;99.90;;;;;;5010278;28;20199;-89
2022/11/12 02:38:49;;;;;;;3.70;1.67;;;6.60;99.90;;;;;;4993436;28;20234;-89
2022/11/12 02:41:15;;;;;;;4.17;2.07;;;6.60;99.90;;;;;;4980794;28;20708;-89
2022/11/12 02:43:42;;;;;;;3.23;1.67;;;6.60;99.90;;;;;;4974246;28;20485;-89
2022/11/12 02:46:08;;;;;;;4.00;1.67;;;6.60;99.90;;;;;;4974342;28;20220;-89
2022/11/12 02:48:34;;;;;;;7.77;2.20;;;6.60;99.90;;;;;;4974264;28;20197;-89
2022/11/12 02:51:00;;;;;;;3.00;1.83;;;6.60;99.90;;;;;;4974216;28;20177;-89
2022/11/12 02:53:27;;;;;;;4.90;2.00;;;6.60;99.90;;;;;;4956833;28;20201;-89
2022/11/12 02:55:54;;;;;;;3.77;1.80;;;6.60;99.90;;;;;;4970647;28;20184;-89
2022/11/12 02:58:21;;;;;;;3.20;1.90;;;6.70;99.90;;;;;;4970532;28;20299;-89
2022/11/12 03:00:48;;;;;;;2.77;1.60;;;6.60;99.90;;;;;;4955236;28;20162;-89
2022/11/12 03:03:14;;;;;;;3.50;2.00;;;6.60;99.90;;;;;;4970679;28;20177;-89
2022/11/12 03:05:40;;;;;;;3.13;2.10;;;6.60;99.90;;;;;;4954498;28;20220;-89
2022/11/12 03:08:07;;;;;;;4.60;1.90;;;6.60;99.90;;;;;;4955406;28;20268;-89
2022/11/12 03:10:37;;;;;;;4.40;1.87;;;6.60;99.90;;;;;;4955288;28;20170;-89
2022/11/12 03:13:03;;;;;;;2.63;1.53;;;6.60;99.90;;;;;;4970283;28;20178;-89
2022/11/12 03:15:29;;;;;;;4.13;1.90;;;6.60;99.90;;;;;;4970656;28;20255;-89
2022/11/12 03:17:57;;;;;;;4.73;1.80;;;6.70;99.90;;;;;;4955522;28;20205;-89
2022/11/12 03:20:24;;;;;;;6.40;1.83;;;6.60;99.90;;;;;;4955597;28;20228;-89
2022/11/12 03:23:02;;;;;;;2.37;1.77;;;6.70;99.90;;;;;;4970333;28;20212;-89
2022/11/12 03:25:28;;;;;;;3.17;1.70;;;6.60;99.90;;;;;;4955581;28;20784;-89
2022/11/12 03:28:06;;;;;;;3.60;2.17;;;6.60;99.90;;;;;;4970199;28;20209;-89
2022/11/12 03:30:35;;;;;;;5.33;2.07;;;6.50;99.90;;;;;;4970363;28;20648;-89
2022/11/12 03:33:01;;;;;;;2.77;1.70;;;6.50;99.90;;;;;;4969846;28;20197;-89
2022/11/12 03:35:27;;;;;;;3.13;2.10;;;6.50;99.90;;;;;;4970353;28;20169;-89
2022/11/12 03:37:53;;;;;;;3.73;2.00;;;6.50;99.90;;;;;;4969898;28;20867;-89
2022/11/12 03:40:19;;;;;;;4.73;2.10;;;6.50;99.90;;;;;;4977588;28;20231;-90
2022/11/12 03:42:49;;;;;;;3.23;1.83;;;6.40;99.90;;;;;;5008751;28;20183;-89
2022/11/12 03:45:16;;;;;;;6.63;2.10;;;6.40;99.90;;;;;;4993592;28;20168;-90
2022/11/12 03:47:44;;;;;;;2.60;1.90;;;6.40;99.90;;;;;;4993459;28;20642;-89
2022/11/12 03:50:11;;;;;;;2.70;1.80;;;6.40;99.90;;;;;;5008880;28;20310;-90
2022/11/12 03:52:38;;;;;;;4.03;2.30;;;6.30;99.90;;;;;;4993669;28;20627;-89
2022/11/12 03:55:08;;;;;;;3.00;1.77;;;6.30;99.90;;;;;;5008525;28;20179;-90
2022/11/12 03:57:34;;;;;;;4.07;1.80;;;6.30;99.90;;;;;;5008402;28;20210;-89
2022/11/12 04:00:00;;;;;;;6.07;2.07;;;6.30;99.90;;;;;;5008511;28;20191;-88
2022/11/12 04:02:28;;;;;;;3.90;2.03;;;6.30;99.90;;;;;;5008662;28;20188;-89
2022/11/12 04:10:24;;;;;;;4.90;1.63;;;6.30;99.90;;;;;;4988146;28;20544;-90
2022/11/12 04:15:35;;;;;;;3.03;1.67;;;6.30;99.90;;;;;;4973978;28;20164;-89
2022/11/12 04:21:49;;;;;;;5.97;1.90;;;6.20;99.90;;;;;;4974354;28;20271;-89
2022/11/12 04:23:30;;;;;;;6.13;2.00;;;6.10;99.90;;;;;;4973793;28;20275;-89
2022/11/12 04:30:14;;;;;;;5.00;1.90;;;6.10;99.90;;;;;;4973891;28;20683;-90
2022/11/12 04:31:26;;;;;;;2.03;1.53;;;6.00;99.90;;;;;;4973290;28;20180;-89
2022/11/12 04:33:52;;;;;;;5.30;2.00;;;6.00;99.90;;;;;;4972334;28;20173;-89
2022/11/12 04:36:18;;;;;;;5.37;2.13;;;6.00;99.90;;;;;;4972411;28;20176;-90
2022/11/12 04:38:43;;;;;;;4.90;1.97;;;5.90;99.90;;;;;;4972378;28;20197;-89
2022/11/12 04:46:38;;;;;;;2.83;1.87;;;5.70;99.90;;;;;;4973834;28;20258;-89
2022/11/12 04:49:04;;;;;;;4.27;1.70;;;5.70;99.90;;;;;;4972161;28;20208;-88
2022/11/12 04:54:13;;;;;;;3.77;2.07;;;5.70;99.90;;;;;;4974168;28;20252;-89
2022/11/12 04:56:39;;;;;;;2.47;1.70;;;5.70;99.90;;;;;;4973481;28;20630;-89
2022/11/12 04:59:05;;;;;;;4.30;2.10;;;5.70;99.90;;;;;;4973562;28;20169;-89
2022/11/12 05:01:31;;;;;;;2.50;1.80;;;5.60;99.90;;;;;;4972760;28;20184;-89
2022/11/12 05:03:58;;;;;;;3.67;1.80;;;5.50;99.90;;;;;;4972957;28;20603;-89
2022/11/12 05:09:08;;;;;;;2.77;1.80;;;5.50;99.90;;;;;;4974063;28;20160;-89
2022/11/12 05:11:33;;;;;;;3.43;1.73;;;5.50;99.90;;;;;;4988464;28;20183;-89
2022/11/12 05:13:59;;;;;;;2.40;1.53;;;5.40;99.90;;;;;;5008234;28;20241;-88
2022/11/12 05:16:25;;;;;;;2.90;1.90;;;5.20;99.90;;;;;;4991689;28;20544;-90
2022/11/12 05:18:51;;;;;;;2.23;1.50;;;5.10;99.90;;;;;;5008284;28;20604;-89
2022/11/12 05:24:00;;;;;;;3.13;1.87;;;5.00;99.90;;;;;;4993499;28;20211;-89
2022/11/12 05:26:26;;;;;;;3.17;1.60;;;5.00;99.90;;;;;;5011645;28;20204;-90
2022/11/12 05:28:52;;;;;;;5.17;2.03;;;5.00;99.90;;;;;;4995271;28;20172;-89
2022/11/12 05:31:17;;;;;;;3.43;1.70;;;5.00;99.90;;;;;;5011752;28;20183;-89
2022/11/12 05:33:43;;;;;;;6.00;1.70;;;5.10;99.90;;;;;;5011217;28;20172;-89
2022/11/12 05:36:10;;;;;;;2.97;2.07;;;5.10;99.90;;;;;;4976021;28;20184;-90
2022/11/12 05:38:37;;;;;;;4.03;1.73;;;5.00;99.90;;;;;;4976855;28;20188;-89
2022/11/12 05:41:03;;;;;;;3.50;1.80;;;5.00;99.90;;;;;;4975409;28;20295;-88
2022/11/12 05:43:30;;;;;;;3.70;1.80;;;5.10;99.90;;;;;;4975878;28;20388;-89
2022/11/12 05:45:56;;;;;;;3.87;2.20;;;5.10;99.90;;;;;;4976435;28;20160;-89
2022/11/12 05:48:22;;;;;;;3.10;1.97;;;5.10;99.90;;;;;;4976442;28;20685;-89
2022/11/12 05:50:52;;;;;;;3.37;1.70;;;5.10;99.90;;;;;;4975756;28;20184;-89
2022/11/12 05:53:18;;;;;;;4.53;2.03;;;5.10;99.90;;;;;;4975475;28;20215;-90
2022/11/12 05:55:44;;;;;;;2.20;1.57;;;5.10;99.90;;;;;;4975296;28;20180;-89
2022/11/12 05:58:10;;;;;;;2.23;1.70;;;5.00;99.90;;;;;;4974945;28;20225;-89
2022/11/12 06:00:38;;;;;;;3.37;2.20;;;5.00;99.90;;;;;;4976402;28;20165;-89
2022/11/12 06:03:11;;;;;;;3.10;1.80;;;4.90;99.90;;;;;;4975554;28;20637;-89
2022/11/12 06:05:37;;;;;;;3.00;1.90;;;4.90;99.90;;;;;;4989863;28;20263;-89
2022/11/12 06:08:05;;;;;;;2.77;1.80;;;4.80;99.90;;;;;;5010917;28;20713;-89
2022/11/12 06:10:33;;;;;;;3.93;2.23;;;4.80;99.90;;;;;;5010708;28;20172;-89
2022/11/12 06:12:59;;;;;;;2.10;1.67;;;4.80;99.90;;;;;;5011150;28;20175;-90
2022/11/12 06:15:25;;;;;;;3.17;1.60;;;4.80;99.90;;;;;;5010519;28;20663;-89
2022/11/12 06:17:52;;;;;;;2.30;1.70;;;4.70;99.90;;;;;;4957996;28;20216;-89
2022/11/12 06:20:21;;;;;;;4.53;1.80;;;4.60;99.90;;;;;;4955673;28;20185;-89
2022/11/12 06:22:47;;;;;;;5.00;1.67;;;4.60;99.90;;;;;;4968824;28;20618;-89
2022/11/12 06:25:12;;;;;;;2.27;1.73;;;4.60;99.90;;;;;;4963174;28;20274;-88
2022/11/12 06:27:39;;;;;;;5.43;1.80;;;4.70;99.90;;;;;;4955310;28;20221;-89
2022/11/12 06:30:09;;;;;;;4.87;1.93;;;4.60;99.90;;;;;;4955217;28;20177;-89
2022/11/12 06:32:35;;;;;;;6.57;1.80;;;4.50;99.90;;;;;;4955334;28;20276;-89
2022/11/12 06:35:01;;;;;;;5.50;1.90;;;4.50;99.90;;;;;;4965074;28;20267;-89
2022/11/12 06:37:26;;;;;;;2.50;1.90;;;4.40;99.90;;;;;;4973903;28;20579;-89
2022/11/12 06:39:52;;;;;;;4.83;2.17;;;4.40;99.90;;;;;;4974391;28;20172;-89
2022/11/12 06:42:18;;;;;;;2.80;1.70;;;4.40;99.90;;;;;;4990260;28;20544;-89
2022/11/12 06:44:44;;;;;;;4.07;1.87;;;4.40;99.90;;;;;;4974339;28;20183;-89
2022/11/12 06:47:10;;;;;;;2.40;1.77;;;4.40;99.90;;;;;;4974340;28;20224;-89
2022/11/12 06:49:36;;;;;;;4.77;1.90;;;4.40;99.90;;;;;;4974374;28;20169;-89
2022/11/12 06:52:02;;;;;;;2.80;1.60;;;4.40;99.90;;;;;;4974164;28;20238;-89
2022/11/12 06:54:28;;;;;;;3.73;1.67;;;4.40;99.90;;;;;;4974155;28;20176;-90
2022/11/12 06:56:54;;;;;;;3.40;2.30;;;4.40;99.90;;;;;;4974187;28;20231;-88
2022/11/12 06:59:19;;;;;;;1.93;1.67;;;4.30;99.90;;;;;;4973986;28;20176;-89
2022/11/12 07:01:45;;;;;;;2.90;1.67;;;4.30;99.90;;;;;;4974118;28;20199;-88
2022/11/12 07:04:11;;;;;;;3.97;1.90;;;4.20;99.90;;;;;;4974249;28;20180;-90
2022/11/12 07:06:37;;;;;;;2.07;1.70;;;4.30;99.90;;;;;;4990180;28;20280;-89
2022/11/12 07:09:03;;;;;;;3.17;1.73;;;4.30;99.90;;;;;;4990135;28;20325;-89
2022/11/12 07:11:29;;;;;;;4.37;1.73;;;4.40;99.90;;;;;;4974307;28;20165;-90
2022/11/12 07:13:55;;;;;;;5.30;1.63;;;4.40;99.90;;;;;;4973217;28;20199;-89
2022/11/12 07:16:21;;;;;;;3.17;1.70;;;4.50;99.90;;;;;;4973434;28;20319;-89
2022/11/12 07:18:48;;;;;;;2.07;1.80;;;4.50;99.90;;;;;;4973212;28;20308;-89
2022/11/12 07:21:16;;;;;;;2.47;1.90;;;4.60;99.90;;;;;;4972992;28;20174;-89
2022/11/12 07:23:42;;;;;;;4.73;2.23;;;4.60;99.90;;;;;;4973109;28;20173;-90
2022/11/12 07:26:17;;;;;;;4.20;2.27;;;4.70;99.90;;;;;;4973024;28;20168;-89
2022/11/12 07:28:44;;;;;;;5.97;2.30;;;4.60;99.90;;;;;;4973817;28;20172;-89
2022/11/12 07:31:11;;;;;;;3.00;2.10;;;4.80;99.90;;;;;;4973629;28;20183;-89
2022/11/12 07:33:37;;;;;;;2.67;1.90;;;4.60;99.90;;;;;;4972534;28;20172;-89
2022/11/12 07:36:09;;;;;;;2.43;1.60;;;4.60;99.90;;;;;;4973035;28;20286;-89
2022/11/12 07:38:38;;;;;;;3.20;2.10;;;4.50;99.90;;;;;;4964625;28;20244;-88
2022/11/12 07:41:05;;;;;;;3.83;2.03;;;4.30;99.90;;;;;;4973447;28;20637;-89
2022/11/12 07:43:33;;;;;;;3.23;2.27;;;4.20;99.90;;;;;;4977319;28;20198;-88
2022/11/12 07:46:07;;;;;;;6.90;2.50;;;4.30;99.90;;;;;;4973556;28;20176;-88
2022/11/12 07:48:33;;;;;;;5.03;2.20;;;4.50;99.90;;;;;;4989130;28;20298;-89
2022/11/12 07:51:04;;;;;;;3.63;2.33;;;4.60;99.90;;;;;;4995253;28;20212;-89
2022/11/12 07:53:31;;;;;;;4.07;2.57;;;4.70;99.90;;;;;;4972161;28;20188;-88
2022/11/12 07:55:59;;;;;;;3.37;2.10;;;4.80;99.90;;;;;;4984090;28;20172;-88
2022/11/12 07:58:28;;;;;;;4.67;2.00;;;4.80;99.90;;;;;;5006241;28;20214;-89
2022/11/12 08:00:54;;;;;;;4.53;2.07;;;4.90;99.90;;;;;;4976368;28;20176;-88
2022/11/12 08:03:20;;;;;;;2.67;2.07;;;5.00;99.90;;;;;;5000636;28;20556;-88
2022/11/12 08:05:47;;;;;;;3.20;1.80;;;5.00;99.90;;;;;;4972404;28;20176;-89
2022/11/12 08:08:13;;;;;;;3.20;2.00;;;5.10;99.90;;;;;;4971960;28;20244;-89
2022/11/12 08:10:38;;;;;;;2.93;1.87;;;5.20;99.90;;;;;;4973889;28;20176;-89
2022/11/12 08:13:05;;;;;;;4.47;2.27;;;5.20;99.90;;;;;;5002787;28;20205;-89
2022/11/12 08:15:31;;;;;;;3.43;2.10;;;5.30;99.90;;;;;;4971770;28;20227;-89
2022/11/12 08:17:57;;;;;;;2.80;1.90;;;5.40;99.90;;;;;;4971784;28;20219;-89
2022/11/12 08:20:23;;;;;;;3.47;2.20;;;5.50;99.90;;;;;;4987248;28;20257;-89
2022/11/12 08:22:49;;;;;;;4.03;2.03;;;5.60;99.90;;;;;;4990104;28;20179;-89
2022/11/12 08:25:15;;;;;;;4.60;2.80;;;5.60;99.90;;;;;;4972089;28;20173;-89
2022/11/12 08:27:41;;;;;;;2.70;1.90;;;5.70;99.90;;;;;;4981516;28;20218;-89
2022/11/12 08:30:08;;;;;;;4.17;2.20;;;5.80;99.90;;;;;;4994223;28;20177;-89
2022/11/12 08:32:34;;;;;;;5.43;2.63;;;5.80;99.90;;;;;;4988098;28;20183;-90
2022/11/12 08:34:59;;;;;;;12.97;4.97;;;5.90;99.90;;;;;;4988520;28;20175;-89
2022/11/12 08:37:25;;;;;;;5.00;2.50;;;5.90;99.90;;;;;;5002650;28;20200;-89
2022/11/12 08:39:51;;;;;;;5.70;2.00;;;5.90;99.90;;;;;;4971272;28;20263;-89
2022/11/12 08:42:17;;;;;;;4.30;2.00;;;5.90;99.90;;;;;;4971545;28;20267;-90
2022/11/12 08:44:43;;;;;;;3.63;1.73;;;5.80;99.90;;;;;;4983517;28;20274;-88
2022/11/12 08:47:09;;;;;;;6.03;2.00;;;5.80;99.90;;;;;;4989956;28;20219;-89
2022/11/12 08:49:34;;;;;;;3.67;1.93;;;5.70;99.90;;;;;;5005750;28;20280;-89
2022/11/12 08:52:01;;;;;;;3.73;2.00;;;5.60;99.90;;;;;;5006172;28;20278;-88
2022/11/12 08:54:27;;;;;;;6.97;2.20;;;5.60;99.90;;;;;;5006710;28;20326;-89
2022/11/12 08:56:53;;;;;;;4.37;2.07;;;5.60;99.90;;;;;;4990252;28;20286;-89
2022/11/12 08:59:19;;;;;;;4.27;1.90;;;5.60;99.90;;;;;;5008059;28;20222;-88
2022/11/12 09:01:44;;;;;;;3.43;1.90;;;5.70;99.90;;;;;;4995227;28;20211;-89
2022/11/12 09:04:10;;;;;;;3.13;1.73;;;5.80;99.90;;;;;;5007658;28;20188;-89
2022/11/12 09:06:36;;;;;;;2.83;2.07;;;5.80;99.90;;;;;;4976478;28;20192;-89
2022/11/12 09:09:02;;;;;;;3.40;1.90;;;5.90;99.90;;;;;;4975609;28;20176;-89
2022/11/12 09:11:28;;;;;;;4.20;1.90;;;5.90;99.90;;;;;;4975236;28;20628;-89
2022/11/12 09:13:54;;;;;;;5.53;2.30;;;6.00;99.90;;;;;;4975107;28;20533;-89
2022/11/12 09:16:20;;;;;;;5.50;1.93;;;6.10;99.90;;;;;;4991390;28;20169;-89
2022/11/12 09:18:47;;;;;;;3.47;2.37;;;6.10;99.90;;;;;;4975114;28;20629;-89
2022/11/12 09:21:13;;;;;;;3.20;2.20;;;6.20;99.90;;;;;;4976088;28;20161;-89
2022/11/12 09:23:39;;;;;;;3.10;2.23;;;6.30;99.90;;;;;;4974457;28;20183;-89
2022/11/12 09:26:05;;;;;;;2.80;2.00;;;6.30;99.90;;;;;;4976055;28;20156;-89
2022/11/12 09:28:31;;;;;;;4.00;2.17;;;6.40;99.90;;;;;;4991267;28;20291;-89
2022/11/12 09:30:58;;;;;;;4.23;2.70;;;6.40;99.90;;;;;;4991112;28;20169;-89
2022/11/12 09:33:28;;;;;;;3.53;2.40;;;6.50;99.90;;;;;;4976438;28;20617;-89
2022/11/12 09:35:55;;;;;;;5.40;2.73;;;6.50;99.90;;;;;;4991306;28;20208;-89
2022/11/12 09:38:21;;;;;;;6.93;3.20;;;6.60;99.90;;;;;;4990813;28;20637;-89
2022/11/12 09:40:59;;;;;;;8.77;3.60;;;6.50;99.90;;;;;;4974745;28;20322;-89
2022/11/12 09:43:30;;;;;;;11.30;7.83;;;6.60;99.90;;;;;;4974460;28;20212;-89
2022/11/12 09:46:05;;;;;;;8.97;5.33;;;6.60;99.90;;;;;;4990820;28;20187;-89
2022/11/12 09:48:45;;;;;;;8.90;6.10;;;6.70;99.90;;;;;;4975515;28;20231;-89
2022/11/12 09:51:24;;;;;;;5.97;3.73;;;6.80;99.90;;;;;;4990787;28;20172;-89
2022/11/12 09:53:58;;;;;;;5.63;4.17;;;6.90;99.90;;;;;;4994025;28;20188;-89
2022/11/12 09:56:27;;;;;;;4.57;3.57;;;7.00;99.90;;;;;;5010388;28;20172;-89
2022/11/12 09:58:53;;;;;;;7.27;3.30;;;7.00;99.90;;;;;;4994092;28;20172;-89
2022/11/12 10:01:21;;;;;;;5.83;3.17;;;7.10;99.90;;;;;;5010665;28;20315;-89
2022/11/12 10:04:21;;;;;;;5.37;3.00;;;7.10;99.90;;;;;;4995118;28;20206;-89
2022/11/12 10:07:03;;;;;;;5.17;3.37;;;7.20;99.90;;;;;;5010458;28;20222;-89
2022/11/12 10:09:39;;;;;;;4.40;2.93;;;7.40;99.90;;;;;;4993828;28;20168;-88
2022/11/12 10:12:31;;;;;;;6.67;3.27;;;7.40;99.90;;;;;;5008885;28;20180;-88
2022/11/12 10:18:18;;;;;;;7.47;3.00;;;7.60;99.90;;;;;;4994967;28;20697;-89
2022/11/12 10:21:13;;;;;;;4.60;3.07;;;7.70;99.90;;;;;;5010156;28;20323;-88
2022/11/12 10:23:51;;;;;;;8.40;5.07;;;7.70;99.90;;;;;;5010028;28;20214;-89
2022/11/12 10:26:20;;;;;;;26.27;13.57;;;7.80;99.90;;;;;;5009869;28;20179;-89
2022/11/12 10:28:59;;;;;;;5.93;4.13;;;7.90;99.90;;;;;;4993147;28;20627;-89
2022/11/12 10:31:25;;;;;;;4.13;3.00;;;8.00;99.90;;;;;;5009705;28;20164;-89
2022/11/12 10:34:15;;;;;;;3.93;3.00;;;8.00;99.90;;;;;;4984625;28;20193;-89
2022/11/12 10:37:13;;;;;;;6.70;2.87;;;8.00;99.90;;;;;;4979621;28;20247;-89
2022/11/12 10:39:43;;;;;;;3.97;3.20;;;8.20;99.90;;;;;;4970090;28;20296;-89
2022/11/12 10:42:11;;;;;;;4.40;3.45;;;8.20;99.90;;;;;;4954412;28;20193;-89
2022/11/12 10:44:42;;;;;;;6.03;3.35;;;8.30;99.90;;;;;;4970450;28;20180;-89
2022/11/12 10:47:23;;;;;;;4.30;3.13;;;8.40;99.90;;;;;;4954104;28;20252;-89
2022/11/12 10:50:15;;;;;;;6.03;3.17;;;8.50;99.90;;;;;;4970104;28;20228;-89
2022/11/12 10:52:56;;;;;;;5.82;3.05;;;8.60;99.90;;;;;;4962065;28;20204;-89
2022/11/12 10:55:25;;;;;;;4.38;3.30;;;8.70;99.90;;;;;;4973072;28;20187;-89
2022/11/12 10:58:09;;;;;;;4.95;3.17;;;8.80;99.90;;;;;;4972919;28;20208;-89
2022/11/12 11:00:37;;;;;;;6.15;3.25;;;8.90;99.90;;;;;;4972980;28;20190;-89
2022/11/12 11:03:15;;;;;;;6.28;3.25;;;9.00;99.90;;;;;;4973098;28;20185;-89
2022/11/12 11:05:49;;;;;;;4.60;3.40;;;9.10;99.90;;;;;;4973119;28;20714;-89
2022/11/12 11:08:35;;;;;;;5.45;3.00;;;9.20;99.90;;;;;;4973225;28;20680;-89
2022/11/12 11:11:27;;;;;;;5.10;3.17;;;9.20;99.90;;;;;;4972967;28;20189;-89
2022/11/12 11:13:55;;;;;;;5.38;3.35;;;9.30;99.90;;;;;;4971058;28;20192;-89
2022/11/12 11:16:27;;;;;;;5.10;3.05;;;9.50;99.90;;;;;;4972811;28;20181;-89
2022/11/12 11:18:59;;;;;;;5.05;3.15;;;9.50;99.90;;;;;;4972724;28;20663;-89
2022/11/12 11:21:25;;;;;;;5.00;3.40;;;9.60;99.90;;;;;;4972978;28;20199;-89
2022/11/12 11:24:18;;;;;;;4.88;3.25;;;9.60;99.90;;;;;;4973528;28;20640;-89
2022/11/12 11:27:12;;;;;;;6.22;3.78;;;9.70;99.90;;;;;;4988863;28;20239;-89
2022/11/12 11:30:20;;;;;;;5.18;3.50;;;9.80;99.90;;;;;;4988645;28;20177;-89
2022/11/12 11:33:25;;;;;;;6.53;3.38;;;9.90;99.90;;;;;;4952969;28;20185;-89
2022/11/12 11:36:18;;;;;;;6.57;3.05;;;9.90;99.90;;;;;;4952379;29;20724;-89
2022/11/12 11:38:58;;;;;;;7.40;3.42;;;9.90;99.90;;;;;;4971655;28;20264;-89
2022/11/12 11:41:53;;;;;;;5.13;3.05;;;9.90;99.90;;;;;;4973667;28;20220;-88
2022/11/12 11:44:28;;;;;;;4.45;2.88;;;10.00;99.90;;;;;;4988687;28;20639;-89
2022/11/12 11:47:22;;;;;;;6.10;3.55;;;10.10;99.90;;;;;;4988428;28;20269;-89
2022/11/12 11:50:09;;;;;;;9.43;3.17;;;10.10;99.90;;;;;;4988488;28;20177;-88
2022/11/12 11:53:08;;;;;;;4.97;2.90;;;10.10;99.90;;;;;;4991476;28;20188;-88
2022/11/12 11:55:56;;;;;;;5.85;3.20;;;10.20;99.90;;;;;;5008358;28;20169;-89
2022/11/12 11:58:44;;;;;;;6.93;4.18;;;10.30;99.90;;;;;;4992334;28;20794;-89
2022/11/12 12:01:16;;;;;;;5.28;2.88;;;10.40;99.90;;;;;;5008161;28;20186;-89
2022/11/12 12:04:23;;;;;;;7.68;3.22;;;10.40;99.90;;;;;;5007855;28;20182;-89
2022/11/12 12:07:11;;;;;;;6.88;3.20;;;10.50;99.90;;;;;;5007713;28;20219;-88
2022/11/12 12:10:12;;;;;;;7.10;4.35;;;10.70;99.90;;;;;;5007849;28;20179;-89
2022/11/12 12:13:14;;;;;;;7.13;4.30;;;10.80;99.90;;;;;;5007639;28;20595;-89
2022/11/12 12:15:44;;;;;;;9.68;4.40;;;10.80;99.90;;;;;;5007731;28;20172;-89
2022/11/12 12:18:19;;;;;;;7.10;3.63;;;10.90;99.90;;;;;;5007409;28;20675;-89
2022/11/12 12:21:00;;;;;;;5.38;3.45;;;11.00;99.90;;;;;;5007812;28;20182;-89
2022/11/12 12:23:34;;;;;;;6.93;3.20;;;11.10;99.90;;;;;;4994521;28;20184;-89
2022/11/12 12:26:06;;;;;;;3.55;2.35;;;11.20;99.90;;;;;;4973104;28;20167;-89
2022/11/12 12:28:42;;;;;;;4.50;2.40;;;11.30;99.90;;;;;;4971501;28;20279;-89
2022/11/12 12:31:17;;;;;;;4.75;2.22;;;11.40;99.90;;;;;;4971918;28;20248;-88
2022/11/12 12:33:48;;;;;;;4.47;2.30;;;11.50;99.90;;;;;;4971022;28;20659;-89
2022/11/12 12:36:35;;;;;;;5.13;2.13;;;11.70;99.90;;;;;;4971937;28;20199;-89
2022/11/12 12:39:16;;;;;;;7.90;2.10;;;11.80;99.90;;;;;;4972074;28;20199;-89
2022/11/12 12:41:44;;;;;;;3.05;2.03;;;11.90;99.90;;;;;;4971422;28;20224;-89
2022/11/12 12:44:10;;;;;;;4.00;1.98;;;12.00;99.90;;;;;;4972701;28;20167;-89
2022/11/12 12:46:50;;;;;;;6.55;2.30;;;12.20;99.90;;;;;;4971465;28;20208;-89
2022/11/12 12:49:23;;;;;;;3.95;1.95;;;12.40;99.90;;;;;;4971489;28;20169;-89
2022/11/12 12:51:49;;;;;;;3.58;1.80;;;12.50;99.90;;;;;;4971930;28;20172;-89
2022/11/12 12:54:38;;;;;;;3.08;2.05;;;12.60;99.90;;;;;;4988395;28;20207;-89
2022/11/12 12:57:32;;;;;;;2.85;2.22;;;12.80;99.90;;;;;;4972084;28;20199;-89
2022/11/12 13:00:32;;;;;;;3.78;2.13;;;13.00;99.90;;;;;;4971823;28;20200;-89
2022/11/12 13:02:58;;;;;;;4.30;2.40;;;13.10;99.90;;;;;;4971562;28;20200;-89
2022/11/12 13:05:36;;;;;;;7.43;2.35;;;13.30;99.90;;;;;;4971646;28;20177;-89
2022/11/12 13:08:17;;;;;;;3.03;1.88;;;13.30;99.90;;;;;;4972168;28;20676;-89
2022/11/12 13:10:44;;;;;;;4.32;2.50;;;13.40;99.90;;;;;;4971144;28;20184;-89
2022/11/12 13:13:19;;;;;;;4.15;2.35;;;13.40;99.90;;;;;;4971294;28;20168;-89
2022/11/12 13:15:47;;;;;;;6.15;2.50;;;13.30;99.90;;;;;;4972607;28;20643;-89
2022/11/12 13:18:41;;;;;;;4.82;2.60;;;13.40;99.90;;;;;;4972271;28;20204;-89
2022/11/12 13:21:18;;;;;;;4.22;2.63;;;13.30;99.90;;;;;;4971327;28;20183;-90
2022/11/12 13:24:05;;;;;;;4.43;2.30;;;13.30;99.90;;;;;;4987514;28;20192;-89
2022/11/12 13:26:57;;;;;;;3.22;2.20;;;13.30;99.90;;;;;;4987577;28;20228;-89
2022/11/12 13:29:26;;;;;;;3.38;2.33;;;13.20;99.90;;;;;;4987482;28;20617;-89
2022/11/12 13:32:49;;;;;;;3.50;2.25;;;13.10;99.90;;;;;;4971868;28;20169;-89
2022/11/12 13:35:21;;;;;;;4.75;3.50;;;13.10;99.90;;;;;;4950384;28;20180;-89
2022/11/12 13:38:05;;;;;;;5.78;4.35;;;13.10;99.90;;;;;;4950663;28;20208;-89
2022/11/12 13:40:51;;;;;;;5.20;3.45;;;13.00;99.90;;;;;;4964051;28;20224;-89
2022/11/12 13:43:41;;;;;;;3.78;3.17;;;13.00;99.90;;;;;;4970964;28;20248;-89
2022/11/12 13:46:18;;;;;;;4.55;2.50;;;12.90;99.90;;;;;;4974092;28;20177;-89
2022/11/12 13:48:53;;;;;;;4.22;2.40;;;12.90;99.90;;;;;;4975736;28;20270;-89